createdAt,value
2023-05-05T00:00:23.177Z,11
2023-05-05T00:05:35.292Z,11
2023-05-05T00:16:07.656Z,10.9
2023-05-05T00:21:19.762Z,11
2023-05-05T00:26:32.014Z,11
2023-05-05T00:31:44.170Z,11
2023-05-05T00:36:56.748Z,10.9
2023-05-05T00:42:08.867Z,10.9
2023-05-05T00:47:21.084Z,10.9
2023-05-05T00:52:33.329Z,10.8
2023-05-05T00:57:46.340Z,10.7
2023-05-05T01:02:58.704Z,10.6
2023-05-05T01:08:10.861Z,10.6
2023-05-05T01:13:23.102Z,10.6
2023-05-05T01:18:35.217Z,10.5
2023-05-05T01:23:47.386Z,10.5
2023-05-05T01:28:59.560Z,10.5
2023-05-05T01:34:11.961Z,10.5
2023-05-05T01:39:24.054Z,10.5
2023-05-05T01:44:36.156Z,10.6
2023-05-05T01:49:48.424Z,10.5
2023-05-05T01:50:00.541Z,10.5
2023-05-05T01:55:12.807Z,10.4
2023-05-05T02:00:25.530Z,10.3
2023-05-05T02:05:37.968Z,10.3
2023-05-05T02:10:50.064Z,10.2
2023-05-05T02:16:02.240Z,10.2
2023-05-05T02:21:14.365Z,10.2
2023-05-05T02:26:26.491Z,10
2023-05-05T02:31:39.506Z,9.9
2023-05-05T02:36:51.652Z,9.8
2023-05-05T02:42:04.498Z,9.8
2023-05-05T02:47:16.623Z,9.8
2023-05-05T02:52:28.741Z,9.8
2023-05-05T02:57:40.851Z,9.8
2023-05-05T03:02:53.015Z,9.9
2023-05-05T03:08:05.306Z,10
2023-05-05T03:13:18.160Z,9.9
2023-05-05T03:18:30.288Z,9.8
2023-05-05T03:23:42.412Z,9.8
2023-05-05T03:28:54.533Z,9.7
2023-05-05T03:34:06.659Z,9.7
2023-05-05T03:39:18.795Z,9.6
2023-05-05T03:44:31.083Z,9.7
2023-05-05T03:49:43.264Z,9.7
2023-05-05T03:54:55.385Z,9.7
2023-05-05T04:00:08.110Z,9.9
2023-05-05T04:05:20.490Z,10
2023-05-05T04:10:32.612Z,10.1
2023-05-05T04:15:44.725Z,10.2
2023-05-05T04:20:57.261Z,10.3
2023-05-05T04:26:09.496Z,10.4
2023-05-05T04:31:21.695Z,10.6
2023-05-05T04:36:33.994Z,10.7
2023-05-05T04:41:46.234Z,10.8
2023-05-05T04:46:58.522Z,10.9
2023-05-05T04:52:10.772Z,11.1
2023-05-05T04:57:22.964Z,11.1
2023-05-05T05:02:35.170Z,11.2
2023-05-05T05:07:47.415Z,11.3
2023-05-05T05:12:59.584Z,11.4
2023-05-05T05:13:12.877Z,11.4
2023-05-05T05:18:25.292Z,11.6
2023-05-05T05:23:37.392Z,11.7
2023-05-05T05:28:49.567Z,11.9
2023-05-05T05:34:01.657Z,12.1
2023-05-05T05:39:13.760Z,12.9
2023-05-05T05:44:27.930Z,14
2023-05-05T05:49:40.103Z,14.6
2023-05-05T05:54:52.277Z,15.2
2023-05-05T06:00:09.914Z,15.7
2023-05-05T06:05:22.573Z,16.1
2023-05-05T06:10:37.152Z,16.4
2023-05-05T06:15:49.289Z,16.6
2023-05-05T06:21:02.810Z,16.9
2023-05-05T06:26:15.025Z,17.2
2023-05-05T06:31:27.263Z,17.4
2023-05-05T06:36:39.475Z,17.6
2023-05-05T06:41:51.741Z,17.8
2023-05-05T06:47:03.899Z,18
2023-05-05T06:52:16.063Z,18.1
2023-05-05T06:57:28.346Z,18.2
2023-05-05T07:02:40.482Z,18.3
2023-05-05T07:07:52.669Z,18.5
2023-05-05T07:13:04.817Z,18.6
2023-05-05T07:18:17.005Z,18.7
2023-05-05T07:23:29.228Z,18.8
2023-05-05T07:28:41.330Z,18.7
2023-05-05T07:33:53.462Z,18.6
2023-05-05T07:34:05.637Z,18.6
2023-05-05T07:39:17.761Z,18.5
2023-05-05T07:44:30.601Z,18.5
2023-05-05T07:49:43.310Z,18.4
2023-05-05T07:54:55.449Z,18.3
2023-05-05T08:00:07.760Z,18.1
2023-05-05T08:05:20.110Z,18
2023-05-05T08:10:33.840Z,17.9
2023-05-05T08:15:46.214Z,17.8
2023-05-05T08:20:58.364Z,17.8
2023-05-05T08:26:12.200Z,17.7
2023-05-05T08:31:24.385Z,17.6
2023-05-05T08:36:36.564Z,17.7
2023-05-05T08:41:49.630Z,17.6
2023-05-05T08:47:06.855Z,17.6
2023-05-05T08:52:19.051Z,17.8
2023-05-05T08:57:31.344Z,17.9
2023-05-05T09:02:44.213Z,18.1
2023-05-05T09:07:56.476Z,18.5
2023-05-05T09:13:08.756Z,19
2023-05-05T09:18:20.876Z,19.5
2023-05-05T09:23:36.847Z,20
2023-05-05T09:28:50.748Z,20.7
2023-05-05T09:34:02.863Z,21.7
2023-05-05T09:39:14.988Z,22.6
2023-05-05T09:44:27.157Z,23.7
2023-05-05T09:49:39.266Z,24.7
2023-05-05T09:54:51.384Z,25.2
2023-05-05T10:00:03.636Z,25.9
2023-05-05T10:05:16.000Z,26.2
2023-05-05T10:10:29.074Z,26.6
2023-05-05T10:15:41.396Z,26.6
2023-05-05T10:20:54.026Z,26.8
2023-05-05T10:26:07.582Z,26.7
2023-05-05T10:31:25.625Z,26.5
2023-05-05T10:36:38.923Z,26.3
2023-05-05T10:41:51.091Z,25.9
2023-05-05T10:47:03.241Z,25.7
2023-05-05T10:52:20.746Z,25.4
2023-05-05T10:57:32.949Z,25.3
2023-05-05T11:02:45.066Z,25
2023-05-05T11:02:57.738Z,25
2023-05-05T11:08:10.400Z,24.8
2023-05-05T11:13:22.628Z,24.6
2023-05-05T11:18:35.473Z,24.9
2023-05-05T11:23:48.187Z,25.2
2023-05-05T11:29:00.420Z,25.3
2023-05-05T11:34:13.045Z,25.4
2023-05-05T11:39:27.534Z,25.8
2023-05-05T11:44:39.656Z,26.5
2023-05-05T11:49:51.794Z,26.9
2023-05-05T11:55:04.107Z,27.4
2023-05-05T12:00:16.224Z,27.9
2023-05-05T12:05:28.331Z,28.2
2023-05-05T12:10:40.440Z,28.3
2023-05-05T12:15:52.736Z,28.3
2023-05-05T12:21:05.037Z,27.9
2023-05-05T12:26:17.283Z,27.8
2023-05-05T12:31:29.514Z,27.9
2023-05-05T12:36:43.329Z,27.6
2023-05-05T12:41:55.433Z,27
2023-05-05T12:47:07.533Z,26.5
2023-05-05T12:52:19.654Z,27
2023-05-05T12:57:31.910Z,27.4
2023-05-05T13:02:49.259Z,27.6
2023-05-05T13:08:01.772Z,27
2023-05-05T13:13:15.579Z,26.6
2023-05-05T13:18:27.722Z,26.3
2023-05-05T13:23:43.049Z,26.3
2023-05-05T13:28:55.173Z,26.8
2023-05-05T13:34:10.250Z,27
2023-05-05T13:39:22.571Z,27.6
2023-05-05T13:44:35.191Z,27.7
2023-05-05T13:49:47.336Z,27.7
2023-05-05T13:54:59.625Z,26.8
2023-05-05T14:00:12.297Z,26.1
2023-05-05T14:05:24.426Z,25.8
2023-05-05T14:10:36.564Z,25.6
2023-05-05T14:15:48.683Z,25.2
2023-05-05T14:21:00.791Z,24.7
2023-05-05T14:26:13.033Z,24.2
2023-05-05T14:31:25.227Z,24
2023-05-05T14:36:38.282Z,23.9
2023-05-05T14:41:50.389Z,23.7
2023-05-05T14:47:02.505Z,23.5
2023-05-05T14:52:16.590Z,23.2
2023-05-05T14:57:28.864Z,23
2023-05-05T15:02:41.084Z,22.7
2023-05-05T15:07:53.779Z,22.4
2023-05-05T15:13:08.451Z,22
2023-05-05T15:18:22.269Z,21.6
2023-05-05T15:23:34.440Z,21.3
2023-05-05T15:33:58.982Z,21
2023-05-05T15:39:11.116Z,20.7
2023-05-05T15:44:23.744Z,20.4
2023-05-05T15:49:35.858Z,20.2
2023-05-05T15:54:48.022Z,19.8
2023-05-05T16:00:02.648Z,19.3
2023-05-05T16:05:14.849Z,19
2023-05-05T16:10:27.871Z,18.7
2023-05-05T16:15:39.991Z,18.3
2023-05-05T16:20:52.233Z,18
2023-05-05T16:26:04.498Z,17.8
2023-05-05T16:31:16.630Z,17.5
2023-05-05T16:36:29.859Z,17.3
2023-05-05T16:41:41.996Z,17.1
2023-05-05T16:46:54.120Z,17
2023-05-05T16:52:06.243Z,17
2023-05-05T16:57:18.423Z,16.9
2023-05-05T17:02:30.545Z,17
2023-05-05T17:07:42.692Z,17.2
2023-05-05T17:12:54.841Z,17.3
2023-05-05T17:18:06.981Z,17.4
2023-05-05T17:18:19.133Z,17.4
2023-05-05T17:23:31.243Z,17.4
2023-05-05T17:28:43.376Z,17.4
2023-05-05T17:33:55.512Z,17.4
2023-05-05T17:39:07.616Z,17.3
2023-05-05T17:44:19.730Z,17.3
2023-05-05T17:44:31.894Z,17.3
2023-05-05T17:49:44.191Z,17.3
2023-05-05T17:54:56.310Z,17.3
2023-05-05T18:00:08.589Z,17.2
2023-05-05T18:05:20.799Z,17
2023-05-05T18:10:32.921Z,16.9
2023-05-05T18:15:45.074Z,16.8
2023-05-05T18:20:59.466Z,16.6
2023-05-05T18:26:11.714Z,16.4
2023-05-05T18:31:23.837Z,16.2
2023-05-05T18:36:36.781Z,16
2023-05-05T18:41:48.914Z,15.8
2023-05-05T18:47:01.563Z,15.6
2023-05-05T18:52:13.744Z,15.4
2023-05-05T18:57:26.370Z,15.2
2023-05-05T19:02:38.565Z,15.1
2023-05-05T19:02:50.779Z,15.1
2023-05-05T19:08:02.967Z,14.9
2023-05-05T19:13:15.605Z,14.8
2023-05-05T19:18:27.766Z,14.7
2023-05-05T19:23:39.874Z,14.7
2023-05-05T19:28:53.005Z,14.7
2023-05-05T19:34:05.167Z,14.6
2023-05-05T19:39:17.423Z,14.5
2023-05-05T19:44:29.609Z,14.5
2023-05-05T19:49:41.722Z,14.4
2023-05-05T19:54:53.824Z,14.4
2023-05-05T20:00:05.957Z,14.4
2023-05-05T20:05:18.118Z,14.4
2023-05-05T20:10:30.342Z,14.3
2023-05-05T20:15:42.548Z,14.3
2023-05-05T20:20:54.797Z,14.3
2023-05-05T20:26:07.119Z,14.3
2023-05-05T20:31:20.366Z,14.3
2023-05-05T20:36:32.574Z,14.2
2023-05-05T20:41:44.832Z,14.2
2023-05-05T20:46:57.537Z,14.1
2023-05-05T20:52:09.878Z,14.1
2023-05-05T20:57:22.054Z,14.1
2023-05-05T21:02:34.244Z,14.1
2023-05-05T21:07:46.457Z,14.1
2023-05-05T21:12:58.874Z,14
2023-05-05T21:18:11.570Z,14
2023-05-05T21:23:23.796Z,14
2023-05-05T21:28:36.037Z,13.9
2023-05-05T21:33:48.140Z,13.9
2023-05-05T21:39:00.491Z,13.9
2023-05-05T21:44:12.883Z,13.8
2023-05-05T21:49:25.051Z,13.7
2023-05-05T21:54:37.674Z,13.7
2023-05-05T21:59:49.851Z,13.7
2023-05-05T22:05:02.004Z,13.7
2023-05-05T22:10:14.635Z,13.7
2023-05-05T22:15:30.099Z,13.7
2023-05-05T22:20:45.157Z,13.6
2023-05-05T22:26:01.146Z,13.6
2023-05-05T22:31:13.345Z,13.6
2023-05-05T22:36:27.044Z,13.6
2023-05-05T22:41:39.339Z,13.6
2023-05-05T22:46:51.707Z,13.5
2023-05-05T22:52:04.973Z,13.5
2023-05-05T22:57:17.196Z,13.5
2023-05-05T23:02:29.517Z,13.5
2023-05-05T23:07:41.614Z,13.5
2023-05-05T23:12:54.244Z,13.4
2023-05-05T23:18:06.400Z,13.4
2023-05-05T23:23:18.662Z,13.4
2023-05-05T23:28:30.846Z,13.4
2023-05-05T23:33:43.142Z,13.3
2023-05-05T23:38:55.260Z,13.3
2023-05-05T23:44:07.745Z,13.2
2023-05-05T23:49:20.554Z,13.1
2023-05-05T23:54:32.740Z,13.1
2023-05-05T23:59:44.856Z,13
